sensor_id;sensor_type;location;lat;lon;timestamp;pressure;altitude;pressure_sealevel;temperature;humidity
13041;BME280;6587;42.728;23.288;2023-11-19T00:00:50;95323.59;;;2.28;70.29
13041;BME280;6587;42.728;23.288;2023-11-19T00:03:19;95341.53;;;2.38;70.03
13041;BME280;6587;42.728;23.288;2023-11-19T00:05:46;95348.66;;;2.38;70.36
13041;BME280;6587;42.728;23.288;2023-11-19T00:08:13;95342.53;;;2.46;69.55
13041;BME280;6587;42.728;23.288;2023-11-19T00:10:40;95339.22;;;2.37;70.16
13041;BME280;6587;42.728;23.288;2023-11-19T00:13:07;95332.53;;;2.27;70.07
13041;BME280;6587;42.728;23.288;2023-11-19T00:15:35;95330.03;;;2.31;69.82
13041;BME280;6587;42.728;23.288;2023-11-19T00:18:02;95326.75;;;2.34;69.65
13041;BME280;6587;42.728;23.288;2023-11-19T00:20:31;95333.84;;;2.21;70.43
13041;BME280;6587;42.728;23.288;2023-11-19T00:22:58;95334.31;;;2.35;70.06
13041;BME280;6587;42.728;23.288;2023-11-19T00:25:26;95340.44;;;2.27;70.00
13041;BME280;6587;42.728;23.288;2023-11-19T00:27:53;95322.38;;;2.26;70.01
13041;BME280;6587;42.728;23.288;2023-11-19T00:30:22;95329.50;;;2.25;69.96
13041;BME280;6587;42.728;23.288;2023-11-19T00:32:49;95326.75;;;2.34;70.06
13041;BME280;6587;42.728;23.288;2023-11-19T00:35:16;95345.25;;;2.25;69.87
13041;BME280;6587;42.728;23.288;2023-11-19T00:37:44;95340.22;;;2.32;69.99
13041;BME280;6587;42.728;23.288;2023-11-19T00:40:13;95345.59;;;2.36;69.68
13041;BME280;6587;42.728;23.288;2023-11-19T00:42:41;95346.13;;;2.29;69.75
13041;BME280;6587;42.728;23.288;2023-11-19T00:45:09;95352.16;;;2.30;70.13
13041;BME280;6587;42.728;23.288;2023-11-19T00:47:38;95336.94;;;2.23;70.37
13041;BME280;6587;42.728;23.288;2023-11-19T00:50:06;95340.66;;;2.22;70.17
13041;BME280;6587;42.728;23.288;2023-11-19T00:52:35;95344.34;;;2.21;70.72
13041;BME280;6587;42.728;23.288;2023-11-19T00:55:05;95355.00;;;2.37;70.28
13041;BME280;6587;42.728;23.288;2023-11-19T00:57:32;95340.44;;;2.27;70.53
13041;BME280;6587;42.728;23.288;2023-11-19T00:59:59;95340.88;;;2.29;70.80
13041;BME280;6587;42.728;23.288;2023-11-19T01:02:26;95330.38;;;2.29;70.29
13041;BME280;6587;42.728;23.288;2023-11-19T01:04:55;95334.50;;;2.30;70.28
13041;BME280;6587;42.728;23.288;2023-11-19T01:07:22;95336.94;;;2.23;70.02
13041;BME280;6587;42.728;23.288;2023-11-19T01:09:52;95334.09;;;2.28;70.25
13041;BME280;6587;42.728;23.288;2023-11-19T01:12:21;95332.78;;;2.34;70.24
13041;BME280;6587;42.728;23.288;2023-11-19T01:14:48;95353.69;;;2.31;70.41
13041;BME280;6587;42.728;23.288;2023-11-19T01:17:15;95334.31;;;2.23;70.21
13041;BME280;6587;42.728;23.288;2023-11-19T01:19:44;95341.97;;;2.28;69.86
13041;BME280;6587;42.728;23.288;2023-11-19T01:22:11;95343.94;;;2.31;69.96
13041;BME280;6587;42.728;23.288;2023-11-19T01:24:38;95352.69;;;2.23;69.84
13041;BME280;6587;42.728;23.288;2023-11-19T01:27:25;95352.28;;;2.33;69.30
13041;BME280;6587;42.728;23.288;2023-11-19T01:29:52;95355.75;;;2.25;69.94
13041;BME280;6587;42.728;23.288;2023-11-19T01:32:19;95359.72;;;2.31;69.42
13041;BME280;6587;42.728;23.288;2023-11-19T01:34:46;95364.84;;;2.28;69.10
13041;BME280;6587;42.728;23.288;2023-11-19T01:37:13;95369.97;;;2.24;69.66
13041;BME280;6587;42.728;23.288;2023-11-19T01:39:40;95376.53;;;2.18;69.54
13041;BME280;6587;42.728;23.288;2023-11-19T01:42:07;95377.44;;;2.22;69.63
13041;BME280;6587;42.728;23.288;2023-11-19T01:44:35;95389.44;;;2.23;69.13
13041;BME280;6587;42.728;23.288;2023-11-19T01:47:06;95385.84;;;2.28;69.08
13041;BME280;6587;42.728;23.288;2023-11-19T01:49:37;95384.53;;;2.22;69.12
13041;BME280;6587;42.728;23.288;2023-11-19T01:52:05;95376.53;;;2.18;69.02
13041;BME280;6587;42.728;23.288;2023-11-19T01:54:32;95383.94;;;2.16;69.45
13041;BME280;6587;42.728;23.288;2023-11-19T01:57:00;95393.06;;;2.19;69.13
13041;BME280;6587;42.728;23.288;2023-11-19T01:59:27;95388.34;;;2.12;69.55
13041;BME280;6587;42.728;23.288;2023-11-19T02:01:56;95391.63;;;2.09;68.63
13041;BME280;6587;42.728;23.288;2023-11-19T02:04:23;95388.09;;;2.05;68.55
13041;BME280;6587;42.728;23.288;2023-11-19T02:06:51;95381.84;;;1.98;69.50
13041;BME280;6587;42.728;23.288;2023-11-19T02:09:20;95376.72;;;2.01;69.16
13041;BME280;6587;42.728;23.288;2023-11-19T02:11:47;95375.19;;;2.00;69.01
13041;BME280;6587;42.728;23.288;2023-11-19T02:14:17;95372.13;;;1.98;69.12
13041;BME280;6587;42.728;23.288;2023-11-19T02:16:45;95368.84;;;2.13;69.05
13041;BME280;6587;42.728;23.288;2023-11-19T02:19:14;95366.22;;;2.01;68.86
13041;BME280;6587;42.728;23.288;2023-11-19T02:21:41;95366.84;;;1.86;69.57
13041;BME280;6587;42.728;23.288;2023-11-19T02:24:11;95365.75;;;1.87;69.63
13041;BME280;6587;42.728;23.288;2023-11-19T02:26:44;95380.13;;;1.69;69.78
13041;BME280;6587;42.728;23.288;2023-11-19T02:29:15;95350.81;;;1.67;70.28
13041;BME280;6587;42.728;23.288;2023-11-19T02:31:42;95356.09;;;1.79;70.12
13041;BME280;6587;42.728;23.288;2023-11-19T02:34:10;95348.47;;;1.86;70.15
13041;BME280;6587;42.728;23.288;2023-11-19T02:36:39;95337.59;;;1.76;70.30
13041;BME280;6587;42.728;23.288;2023-11-19T02:39:07;95341.66;;;1.73;70.08
13041;BME280;6587;42.728;23.288;2023-11-19T02:41:38;95355.03;;;1.80;70.09
13041;BME280;6587;42.728;23.288;2023-11-19T02:44:05;95346.69;;;1.78;69.87
13041;BME280;6587;42.728;23.288;2023-11-19T02:46:34;95356.28;;;1.74;69.70
13041;BME280;6587;42.728;23.288;2023-11-19T02:49:01;95367.16;;;1.85;69.70
13041;BME280;6587;42.728;23.288;2023-11-19T02:51:28;95371.72;;;1.76;70.29
13041;BME280;6587;42.728;23.288;2023-11-19T02:53:55;95365.31;;;1.64;70.84
13041;BME280;6587;42.728;23.288;2023-11-19T02:56:22;95366.56;;;1.67;70.32
13041;BME280;6587;42.728;23.288;2023-11-19T02:58:52;95351.88;;;1.66;70.62
13041;BME280;6587;42.728;23.288;2023-11-19T03:01:22;95355.63;;;1.77;70.20
13041;BME280;6587;42.728;23.288;2023-11-19T03:03:56;95357.94;;;1.79;70.46
13041;BME280;6587;42.728;23.288;2023-11-19T03:06:25;95359.06;;;1.90;69.95
13041;BME280;6587;42.728;23.288;2023-11-19T03:08:52;95368.38;;;1.87;69.87
13041;BME280;6587;42.728;23.288;2023-11-19T03:11:19;95370.53;;;1.85;69.45
13041;BME280;6587;42.728;23.288;2023-11-19T03:13:47;95377.53;;;1.81;69.78
13041;BME280;6587;42.728;23.288;2023-11-19T03:16:13;95374.06;;;1.89;69.32
13041;BME280;6587;42.728;23.288;2023-11-19T03:18:40;95374.72;;;1.86;69.72
13041;BME280;6587;42.728;23.288;2023-11-19T03:21:08;95385.47;;;2.05;68.78
13041;BME280;6587;42.728;23.288;2023-11-19T03:23:36;95394.88;;;1.94;69.17
13041;BME280;6587;42.728;23.288;2023-11-19T03:26:05;95387.00;;;1.94;69.41
13041;BME280;6587;42.728;23.288;2023-11-19T03:28:33;95383.25;;;1.95;69.23
13041;BME280;6587;42.728;23.288;2023-11-19T03:31:00;95383.91;;;1.92;69.14
13041;BME280;6587;42.728;23.288;2023-11-19T03:33:27;95390.03;;;1.96;69.30
13041;BME280;6587;42.728;23.288;2023-11-19T03:35:54;95383.25;;;1.95;69.54
13041;BME280;6587;42.728;23.288;2023-11-19T03:38:23;95383.38;;;1.99;68.67
13041;BME280;6587;42.728;23.288;2023-11-19T03:40:51;95393.13;;;1.98;68.93
13041;BME280;6587;42.728;23.288;2023-11-19T03:43:18;95392.63;;;1.84;69.30
13041;BME280;6587;42.728;23.288;2023-11-19T03:45:45;95409.25;;;1.88;69.68
13041;BME280;6587;42.728;23.288;2023-11-19T03:48:13;95428.84;;;1.91;69.70
13041;BME280;6587;42.728;23.288;2023-11-19T03:50:41;95433.78;;;1.92;69.20
13041;BME280;6587;42.728;23.288;2023-11-19T03:53:08;95431.19;;;2.04;69.09
13041;BME280;6587;42.728;23.288;2023-11-19T03:55:37;95427.16;;;2.07;68.72
13041;BME280;6587;42.728;23.288;2023-11-19T03:58:04;95430.72;;;2.02;68.64
13041;BME280;6587;42.728;23.288;2023-11-19T04:00:32;95427.16;;;2.07;68.74
13041;BME280;6587;42.728;23.288;2023-11-19T04:02:58;95425.53;;;2.14;68.69
13041;BME280;6587;42.728;23.288;2023-11-19T04:05:26;95430.66;;;2.11;68.44
13041;BME280;6587;42.728;23.288;2023-11-19T04:07:53;95417.19;;;2.00;68.74
13041;BME280;6587;42.728;23.288;2023-11-19T04:10:19;95433.81;;;2.04;68.57
13041;BME280;6587;42.728;23.288;2023-11-19T04:12:49;95434.28;;;2.06;68.63
13041;BME280;6587;42.728;23.288;2023-11-19T04:15:16;95437.94;;;1.93;69.02
13041;BME280;6587;42.728;23.288;2023-11-19T04:17:43;95438.84;;;1.97;69.32
13041;BME280;6587;42.728;23.288;2023-11-19T04:20:11;95431.94;;;1.93;69.31
13041;BME280;6587;42.728;23.288;2023-11-19T04:22:39;95434.09;;;1.91;69.21
13041;BME280;6587;42.728;23.288;2023-11-19T04:25:07;95436.44;;;2.04;69.04
13041;BME280;6587;42.728;23.288;2023-11-19T04:27:34;95433.34;;;2.02;68.77
13041;BME280;6587;42.728;23.288;2023-11-19T04:30:02;95444.00;;;2.06;68.87
13041;BME280;6587;42.728;23.288;2023-11-19T04:32:31;95439.41;;;2.15;68.35
13041;BME280;6587;42.728;23.288;2023-11-19T04:34:57;95440.75;;;1.88;69.31
13041;BME280;6587;42.728;23.288;2023-11-19T04:37:24;95448.84;;;1.83;69.47
13041;BME280;6587;42.728;23.288;2023-11-19T04:39:51;95437.69;;;1.86;69.63
13041;BME280;6587;42.728;23.288;2023-11-19T04:42:18;95447.78;;;1.96;68.79
13041;BME280;6587;42.728;23.288;2023-11-19T04:44:45;95444.03;;;1.85;69.14
13041;BME280;6587;42.728;23.288;2023-11-19T04:47:13;95437.19;;;1.72;69.16
13041;BME280;6587;42.728;23.288;2023-11-19T04:49:40;95445.97;;;1.76;69.30
13041;BME280;6587;42.728;23.288;2023-11-19T04:52:09;95435.78;;;1.75;69.67
13041;BME280;6587;42.728;23.288;2023-11-19T04:57:26;95440.66;;;1.85;69.36
13041;BME280;6587;42.728;23.288;2023-11-19T04:59:53;95441.72;;;1.84;69.17
13041;BME280;6587;42.728;23.288;2023-11-19T05:02:21;95445.75;;;1.81;69.45
13041;BME280;6587;42.728;23.288;2023-11-19T05:04:48;95462.53;;;1.89;69.16
13041;BME280;6587;42.728;23.288;2023-11-19T05:07:14;95473.53;;;1.82;69.09
13041;BME280;6587;42.728;23.288;2023-11-19T05:09:41;95487.88;;;1.85;68.89
13041;BME280;6587;42.728;23.288;2023-11-19T05:12:09;95494.84;;;1.81;69.53
13041;BME280;6587;42.728;23.288;2023-11-19T05:14:37;95471.59;;;1.91;68.90
13041;BME280;6587;42.728;23.288;2023-11-19T05:17:04;95478.59;;;1.87;68.68
13041;BME280;6587;42.728;23.288;2023-11-19T05:19:34;95468.69;;;1.72;68.97
13041;BME280;6587;42.728;23.288;2023-11-19T05:22:01;95476.88;;;1.71;69.38
13041;BME280;6587;42.728;23.288;2023-11-19T05:24:28;95467.63;;;1.64;69.64
13041;BME280;6587;42.728;23.288;2023-11-19T05:26:55;95467.78;;;1.68;69.55
13041;BME280;6587;42.728;23.288;2023-11-19T05:29:23;95461.13;;;1.71;69.67
13041;BME280;6587;42.728;23.288;2023-11-19T05:31:50;95466.06;;;1.72;69.17
13041;BME280;6587;42.728;23.288;2023-11-19T05:34:17;95471.75;;;1.74;69.39
13041;BME280;6587;42.728;23.288;2023-11-19T05:36:46;95482.94;;;1.63;69.81
13041;BME280;6587;42.728;23.288;2023-11-19T05:39:13;95486.47;;;1.67;69.38
13041;BME280;6587;42.728;23.288;2023-11-19T05:41:40;95470.59;;;1.63;69.45
13041;BME280;6587;42.728;23.288;2023-11-19T05:44:07;95488.84;;;1.80;69.09
13041;BME280;6587;42.728;23.288;2023-11-19T05:46:33;95494.72;;;1.77;69.02
13041;BME280;6587;42.728;23.288;2023-11-19T05:49:05;95486.47;;;1.87;69.30
13041;BME280;6587;42.728;23.288;2023-11-19T05:51:36;95500.81;;;1.69;69.56
13041;BME280;6587;42.728;23.288;2023-11-19T05:54:06;95498.06;;;1.66;69.66
13041;BME280;6587;42.728;23.288;2023-11-19T05:56:33;95502.72;;;1.60;69.93
13041;BME280;6587;42.728;23.288;2023-11-19T05:59:00;95505.41;;;1.72;69.68
13041;BME280;6587;42.728;23.288;2023-11-19T06:01:29;95509.06;;;1.80;69.56
13041;BME280;6587;42.728;23.288;2023-11-19T06:03:56;95516.47;;;1.78;69.56
13041;BME280;6587;42.728;23.288;2023-11-19T06:06:22;95520.00;;;1.61;69.59
13041;BME280;6587;42.728;23.288;2023-11-19T06:08:49;95514.13;;;1.64;69.75
13041;BME280;6587;42.728;23.288;2023-11-19T06:11:18;95523.50;;;1.65;69.74
13041;BME280;6587;42.728;23.288;2023-11-19T06:13:46;95517.31;;;1.70;69.96
13041;BME280;6587;42.728;23.288;2023-11-19T06:16:13;95510.91;;;1.79;69.26
13041;BME280;6587;42.728;23.288;2023-11-19T06:18:40;95507.97;;;1.60;69.51
13041;BME280;6587;42.728;23.288;2023-11-19T06:21:07;95511.69;;;1.59;69.89
13041;BME280;6587;42.728;23.288;2023-11-19T06:23:34;95506.25;;;1.64;69.62
13041;BME280;6587;42.728;23.288;2023-11-19T06:26:01;95516.28;;;1.62;69.88
13041;BME280;6587;42.728;23.288;2023-11-19T06:28:29;95518.72;;;1.67;69.88
13041;BME280;6587;42.728;23.288;2023-11-19T06:30:56;95534.66;;;1.83;69.48
13041;BME280;6587;42.728;23.288;2023-11-19T06:33:23;95518.22;;;1.74;69.59
13041;BME280;6587;42.728;23.288;2023-11-19T06:35:50;95515.00;;;1.68;69.19
13041;BME280;6587;42.728;23.288;2023-11-19T06:38:17;95521.34;;;1.67;69.48
13041;BME280;6587;42.728;23.288;2023-11-19T06:40:44;95521.81;;;1.69;69.17
13041;BME280;6587;42.728;23.288;2023-11-19T06:43:11;95529.09;;;1.63;69.12
13041;BME280;6587;42.728;23.288;2023-11-19T06:45:39;95520.53;;;1.75;68.96
13041;BME280;6587;42.728;23.288;2023-11-19T06:48:06;95529.47;;;1.74;68.87
13041;BME280;6587;42.728;23.288;2023-11-19T06:50:33;95527.16;;;1.73;68.93
13041;BME280;6587;42.728;23.288;2023-11-19T06:53:00;95524.16;;;1.62;68.92
13041;BME280;6587;42.728;23.288;2023-11-19T06:55:27;95525.25;;;1.61;68.83
13041;BME280;6587;42.728;23.288;2023-11-19T06:57:54;95537.41;;;1.66;68.70
13041;BME280;6587;42.728;23.288;2023-11-19T07:00:20;95536.63;;;1.65;68.92
13041;BME280;6587;42.728;23.288;2023-11-19T07:02:49;95537.97;;;1.71;68.54
13041;BME280;6587;42.728;23.288;2023-11-19T07:05:16;95526.44;;;1.93;68.39
13041;BME280;6587;42.728;23.288;2023-11-19T07:07:43;95523.56;;;1.77;68.36
13041;BME280;6587;42.728;23.288;2023-11-19T07:10:12;95542.88;;;1.81;68.14
13041;BME280;6587;42.728;23.288;2023-11-19T07:12:39;95548.66;;;1.66;68.21
13041;BME280;6587;42.728;23.288;2023-11-19T07:15:08;95535.63;;;1.49;68.60
13041;BME280;6587;42.728;23.288;2023-11-19T07:17:35;95535.09;;;1.64;68.38
13041;BME280;6587;42.728;23.288;2023-11-19T07:20:04;95532.31;;;1.69;68.34
13041;BME280;6587;42.728;23.288;2023-11-19T07:22:31;95534.34;;;1.84;68.34
13041;BME280;6587;42.728;23.288;2023-11-19T07:24:58;95537.97;;;1.71;68.01
13041;BME280;6587;42.728;23.288;2023-11-19T07:27:25;95529.03;;;1.72;68.09
13041;BME280;6587;42.728;23.288;2023-11-19T07:29:52;95527.97;;;1.64;68.03
13041;BME280;6587;42.728;23.288;2023-11-19T07:32:18;95541.69;;;1.70;67.94
13041;BME280;6587;42.728;23.288;2023-11-19T07:34:45;95550.22;;;1.67;68.06
13041;BME280;6587;42.728;23.288;2023-11-19T07:37:13;95564.84;;;1.68;67.95
13041;BME280;6587;42.728;23.288;2023-11-19T07:39:42;95550.22;;;1.67;67.93
13041;BME280;6587;42.728;23.288;2023-11-19T07:42:09;95556.28;;;1.59;68.38
13041;BME280;6587;42.728;23.288;2023-11-19T07:44:36;95554.34;;;1.97;67.95
13041;BME280;6587;42.728;23.288;2023-11-19T07:47:03;95562.91;;;1.86;67.81
13041;BME280;6587;42.728;23.288;2023-11-19T07:49:30;95548.63;;;1.95;67.35
13041;BME280;6587;42.728;23.288;2023-11-19T07:51:57;95570.06;;;1.77;67.79
13041;BME280;6587;42.728;23.288;2023-11-19T07:54:25;95570.09;;;1.68;67.82
13041;BME280;6587;42.728;23.288;2023-11-19T07:56:52;95565.50;;;1.65;67.92
13041;BME280;6587;42.728;23.288;2023-11-19T07:59:19;95568.50;;;1.76;68.00
13041;BME280;6587;42.728;23.288;2023-11-19T08:01:46;95568.50;;;1.76;67.72
13041;BME280;6587;42.728;23.288;2023-11-19T08:04:13;95569.03;;;1.69;68.02
13041;BME280;6587;42.728;23.288;2023-11-19T08:06:40;95572.81;;;1.80;67.29
13041;BME280;6587;42.728;23.288;2023-11-19T08:09:07;95564.41;;;1.66;67.53
13041;BME280;6587;42.728;23.288;2023-11-19T08:11:40;95587.28;;;1.57;67.63
13041;BME280;6587;42.728;23.288;2023-11-19T08:14:08;95588.25;;;1.82;67.91
13041;BME280;6587;42.728;23.288;2023-11-19T08:16:36;95581.13;;;1.82;67.62
13041;BME280;6587;42.728;23.288;2023-11-19T08:19:03;95574.00;;;1.62;67.07
13041;BME280;6587;42.728;23.288;2023-11-19T08:21:30;95591.56;;;1.70;67.57
13041;BME280;6587;42.728;23.288;2023-11-19T08:23:57;95575.88;;;1.82;67.10
13041;BME280;6587;42.728;23.288;2023-11-19T08:26:24;95578.03;;;1.59;67.18
13041;BME280;6587;42.728;23.288;2023-11-19T08:28:52;95586.34;;;1.61;67.32
13041;BME280;6587;42.728;23.288;2023-11-19T08:31:19;95587.72;;;1.68;67.67
13041;BME280;6587;42.728;23.288;2023-11-19T08:33:46;95582.72;;;1.75;67.46
13041;BME280;6587;42.728;23.288;2023-11-19T08:36:16;95588.63;;;1.92;66.98
13041;BME280;6587;42.728;23.288;2023-11-19T08:38:43;95604.63;;;1.99;67.09
13041;BME280;6587;42.728;23.288;2023-11-19T08:41:10;95599.13;;;1.92;66.59
13041;BME280;6587;42.728;23.288;2023-11-19T08:43:37;95602.72;;;1.88;66.78
13041;BME280;6587;42.728;23.288;2023-11-19T08:46:09;95612.53;;;1.70;67.08
13041;BME280;6587;42.728;23.288;2023-11-19T08:48:36;95591.56;;;1.70;66.68
13041;BME280;6587;42.728;23.288;2023-11-19T08:51:03;95594.25;;;1.82;66.82
13041;BME280;6587;42.728;23.288;2023-11-19T08:53:30;95596.13;;;1.82;66.45
13041;BME280;6587;42.728;23.288;2023-11-19T08:55:57;95608.34;;;1.98;66.61
13041;BME280;6587;42.728;23.288;2023-11-19T08:58:24;95615.91;;;2.00;66.29
13041;BME280;6587;42.728;23.288;2023-11-19T09:00:51;95598.88;;;2.26;66.07
13041;BME280;6587;42.728;23.288;2023-11-19T09:03:19;95604.09;;;2.35;64.95
13041;BME280;6587;42.728;23.288;2023-11-19T09:05:47;95602.03;;;2.20;65.35
13041;BME280;6587;42.728;23.288;2023-11-19T09:08:13;95600.81;;;2.17;65.20
13041;BME280;6587;42.728;23.288;2023-11-19T09:10:40;95595.47;;;2.05;65.34
13041;BME280;6587;42.728;23.288;2023-11-19T09:13:07;95613.84;;;2.05;65.02
13041;BME280;6587;42.728;23.288;2023-11-19T09:15:34;95564.63;;;2.02;65.76
13041;BME280;6587;42.728;23.288;2023-11-19T09:18:01;95583.41;;;2.13;65.23
13041;BME280;6587;42.728;23.288;2023-11-19T09:20:29;95576.69;;;2.03;65.29
13041;BME280;6587;42.728;23.288;2023-11-19T09:23:03;95578.66;;;2.06;64.85
13041;BME280;6587;42.728;23.288;2023-11-19T09:25:29;95589.47;;;2.25;65.05
13041;BME280;6587;42.728;23.288;2023-11-19T09:27:56;95607.41;;;2.23;64.55
13041;BME280;6587;42.728;23.288;2023-11-19T09:30:23;95595.09;;;2.15;64.80
13041;BME280;6587;42.728;23.288;2023-11-19T09:32:50;95594.66;;;2.13;64.54
13041;BME280;6587;42.728;23.288;2023-11-19T09:35:17;95564.88;;;2.09;64.19
13041;BME280;6587;42.728;23.288;2023-11-19T09:37:45;95575.31;;;2.18;64.12
13041;BME280;6587;42.728;23.288;2023-11-19T09:40:12;95561.25;;;2.22;63.64
13041;BME280;6587;42.728;23.288;2023-11-19T09:42:43;95555.13;;;2.30;63.86
13041;BME280;6587;42.728;23.288;2023-11-19T09:45:13;95565.00;;;2.33;63.81
13041;BME280;6587;42.728;23.288;2023-11-19T09:47:43;95538.84;;;2.37;63.91
13041;BME280;6587;42.728;23.288;2023-11-19T09:50:15;95539.59;;;2.58;62.88
13041;BME280;6587;42.728;23.288;2023-11-19T09:52:43;95536.06;;;2.54;63.64
13041;BME280;6587;42.728;23.288;2023-11-19T09:55:11;95533.03;;;2.31;63.52
13041;BME280;6587;42.728;23.288;2023-11-19T09:57:39;95539.16;;;2.35;63.34
13041;BME280;6587;42.728;23.288;2023-11-19T10:00:07;95529.44;;;2.36;63.06
13041;BME280;6587;42.728;23.288;2023-11-19T10:02:36;95527.19;;;2.46;63.14
13041;BME280;6587;42.728;23.288;2023-11-19T10:05:05;95538.00;;;2.45;63.60
13041;BME280;6587;42.728;23.288;2023-11-19T10:07:33;95527.63;;;2.48;63.69
13041;BME280;6587;42.728;23.288;2023-11-19T10:10:00;95520.97;;;2.30;63.58
13041;BME280;6587;42.728;23.288;2023-11-19T10:12:31;95525.44;;;2.50;63.88
13041;BME280;6587;42.728;23.288;2023-11-19T10:14:58;95550.41;;;2.44;63.64
13041;BME280;6587;42.728;23.288;2023-11-19T10:17:27;95533.97;;;2.47;63.75
13041;BME280;6587;42.728;23.288;2023-11-19T10:19:55;95540.56;;;2.53;63.92
13041;BME280;6587;42.728;23.288;2023-11-19T10:22:22;95542.09;;;2.54;63.80
13041;BME280;6587;42.728;23.288;2023-11-19T10:24:49;95538.75;;;2.33;64.27
13041;BME280;6587;42.728;23.288;2023-11-19T10:27:17;95535.84;;;2.47;63.81
13041;BME280;6587;42.728;23.288;2023-11-19T10:29:46;95515.59;;;2.47;64.07
13041;BME280;6587;42.728;23.288;2023-11-19T10:32:13;95512.97;;;2.47;63.67
13041;BME280;6587;42.728;23.288;2023-11-19T10:34:40;95517.31;;;2.43;63.20
13041;BME280;6587;42.728;23.288;2023-11-19T10:37:08;95508.31;;;2.32;63.40
13041;BME280;6587;42.728;23.288;2023-11-19T10:39:52;95510.56;;;2.54;63.28
13041;BME280;6587;42.728;23.288;2023-11-19T10:42:20;95515.81;;;2.54;63.34
13041;BME280;6587;42.728;23.288;2023-11-19T10:44:48;95515.59;;;2.47;63.36
13041;BME280;6587;42.728;23.288;2023-11-19T10:47:15;95508.59;;;2.63;62.72
13041;BME280;6587;42.728;23.288;2023-11-19T10:49:43;95509.38;;;2.64;62.96
13041;BME280;6587;42.728;23.288;2023-11-19T10:52:11;95520.66;;;2.64;63.09
13041;BME280;6587;42.728;23.288;2023-11-19T10:54:44;95502.94;;;2.73;62.43
13041;BME280;6587;42.728;23.288;2023-11-19T10:57:18;95525.69;;;2.57;61.83
13041;BME280;6587;42.728;23.288;2023-11-19T10:59:47;95524.34;;;2.51;62.59
13041;BME280;6587;42.728;23.288;2023-11-19T11:02:19;95512.69;;;2.73;62.40
13041;BME280;6587;42.728;23.288;2023-11-19T11:04:49;95512.16;;;2.91;62.60
13041;BME280;6587;42.728;23.288;2023-11-19T11:07:21;95492.22;;;2.90;62.00
13041;BME280;6587;42.728;23.288;2023-11-19T11:09:49;95482.69;;;2.98;62.44
13041;BME280;6587;42.728;23.288;2023-11-19T11:12:17;95486.75;;;3.07;62.38
13041;BME280;6587;42.728;23.288;2023-11-19T11:14:49;95486.75;;;3.07;61.79
13041;BME280;6587;42.728;23.288;2023-11-19T11:17:17;95478.13;;;3.19;61.83
13041;BME280;6587;42.728;23.288;2023-11-19T11:19:45;95479.19;;;3.06;61.79
13041;BME280;6587;42.728;23.288;2023-11-19T11:22:14;95484.69;;;3.25;61.29
13041;BME280;6587;42.728;23.288;2023-11-19T11:25:06;95477.56;;;3.13;61.24
13041;BME280;6587;42.728;23.288;2023-11-19T11:28:05;95478.34;;;3.02;61.39
13041;BME280;6587;42.728;23.288;2023-11-19T11:30:49;95472.72;;;3.28;62.17
13041;BME280;6587;42.728;23.288;2023-11-19T11:33:32;95472.94;;;3.35;61.49
13041;BME280;6587;42.728;23.288;2023-11-19T11:36:11;95485.78;;;3.36;61.53
13041;BME280;6587;42.728;23.288;2023-11-19T11:38:40;95474.03;;;3.34;61.04
13041;BME280;6587;42.728;23.288;2023-11-19T11:41:19;95468.00;;;3.45;60.25
13041;BME280;6587;42.728;23.288;2023-11-19T11:43:47;95457.47;;;4.40;59.10
13041;BME280;6587;42.728;23.288;2023-11-19T11:49:25;95454.47;;;7.36;52.09
13041;BME280;6587;42.728;23.288;2023-11-19T11:52:00;95461.38;;;8.62;48.94
13041;BME280;6587;42.728;23.288;2023-11-19T11:54:28;95453.38;;;8.99;46.15
13041;BME280;6587;42.728;23.288;2023-11-19T11:57:09;95470.09;;;9.53;45.97
13041;BME280;6587;42.728;23.288;2023-11-19T11:59:47;95465.75;;;11.35;41.39
13041;BME280;6587;42.728;23.288;2023-11-19T12:02:15;95471.16;;;10.07;41.42
13041;BME280;6587;42.728;23.288;2023-11-19T12:04:46;95465.72;;;12.84;39.15
13041;BME280;6587;42.728;23.288;2023-11-19T12:07:16;95451.66;;;14.99;35.10
13041;BME280;6587;42.728;23.288;2023-11-19T12:09:48;95446.31;;;12.70;37.49
13041;BME280;6587;42.728;23.288;2023-11-19T12:12:20;95437.75;;;12.96;37.35
13041;BME280;6587;42.728;23.288;2023-11-19T12:15:05;95434.16;;;13.64;36.33
13041;BME280;6587;42.728;23.288;2023-11-19T12:17:42;95436.44;;;12.59;37.17
13041;BME280;6587;42.728;23.288;2023-11-19T12:20:16;95434.53;;;12.60;36.95
13041;BME280;6587;42.728;23.288;2023-11-19T12:22:45;95431.25;;;12.31;37.31
13041;BME280;6587;42.728;23.288;2023-11-19T12:25:15;95424.97;;;11.87;38.18
13041;BME280;6587;42.728;23.288;2023-11-19T12:27:44;95423.47;;;10.70;39.05
13041;BME280;6587;42.728;23.288;2023-11-19T12:30:12;95428.03;;;11.61;38.88
13041;BME280;6587;42.728;23.288;2023-11-19T12:32:40;95422.28;;;12.73;38.20
13041;BME280;6587;42.728;23.288;2023-11-19T12:35:08;95418.34;;;12.19;37.11
13041;BME280;6587;42.728;23.288;2023-11-19T12:37:45;95409.19;;;13.37;36.85
13041;BME280;6587;42.728;23.288;2023-11-19T12:40:14;95416.34;;;12.99;36.00
13041;BME280;6587;42.728;23.288;2023-11-19T12:42:41;95406.91;;;12.22;37.38
13041;BME280;6587;42.728;23.288;2023-11-19T12:45:08;95403.19;;;12.02;37.13
13041;BME280;6587;42.728;23.288;2023-11-19T12:47:36;95395.09;;;12.20;37.30
13041;BME280;6587;42.728;23.288;2023-11-19T12:50:04;95401.75;;;10.36;39.78
13041;BME280;6587;42.728;23.288;2023-11-19T12:52:32;95396.53;;;9.65;42.46
13041;BME280;6587;42.728;23.288;2023-11-19T12:55:01;95402.97;;;11.02;40.92
13041;BME280;6587;42.728;23.288;2023-11-19T12:57:40;95394.19;;;11.33;39.89
13041;BME280;6587;42.728;23.288;2023-11-19T13:00:18;95390.41;;;10.88;40.02
13041;BME280;6587;42.728;23.288;2023-11-19T13:02:47;95387.63;;;11.80;39.00
13041;BME280;6587;42.728;23.288;2023-11-19T13:05:24;95374.63;;;12.64;37.52
13041;BME280;6587;42.728;23.288;2023-11-19T13:07:57;95382.16;;;12.11;38.06
13041;BME280;6587;42.728;23.288;2023-11-19T13:10:26;95381.03;;;12.74;36.56
13041;BME280;6587;42.728;23.288;2023-11-19T13:13:03;95375.34;;;12.03;37.25
13041;BME280;6587;42.728;23.288;2023-11-19T13:15:30;95388.50;;;11.10;39.18
13041;BME280;6587;42.728;23.288;2023-11-19T13:17:57;95374.75;;;11.36;39.27
13041;BME280;6587;42.728;23.288;2023-11-19T13:20:24;95370.53;;;11.63;39.23
13041;BME280;6587;42.728;23.288;2023-11-19T13:22:56;95358.03;;;12.32;38.01